Main page
METAR-TAF:

METAR-TAF

Airports :

Pointe-à-Pitre International Airport

Pointe-à-Pitre, Guadeloupe

latitude: 16-16N, longitude: 061-31W, elevation: 11 m

Current weather observation

The report was made 32 minutes ago, at 21:30 UTC
Wind 9 kt from the East
Temperature 27°C
Humidity 79%
Pressure 1017 hPa
Visibility 10 km or more
Scattered clouds at a height of 3200 ft
Overcast at a height of 3800 ft

METAR: TFFR 172130Z AUTO 08009KT 9999 SCT032 OVC038 27/23 Q1017 NOSIG

Time: 18:02 (22:02 UTC)

Forecast

The report was made 6 hours and 2 minutes ago, at 16:00 UTC
Forecast valid from 17 at 18 UTC to 18 at 18 UTC
Wind 13 kt from the East/Southeast
Visibility 10 km or more
Scattered clouds at a height of 4000 ft
Broken clouds at a height of 6000 ft
Probability 40% :
Temporary
from 18 at 00 UTC to 18 at 12 UTC
Visibility: 4000 m
Scattered clouds at a height of 1800 ft, Towering cumulus.
rain showers

TAF: TFFR 171600Z 1718/1818 12013KT 9999 SCT040 BKN060 PROB40 TEMPO 1800/1812 4000 SHRA SCT018TCU

Weather observations and forecasts of more than 4000 airports (METAR and TAF reports).

The available stations are represented by yellow and red dots on the map.

Hover mouse over dot to see the name of the station.

Then click to see weather observations and forecasts.

To change the map : click on the green buttons with a black cross to zoom in, on the green button with a dash to zoom out, or on the green arrows for adjacent maps.


METAR-TAF: